sensor_id;sensor_type;location;lat;lon;timestamp;P1;durP1;ratioP1;P2;durP2;ratioP2
29352;SDS011;16344;50.364;8.944;2023-04-09T00:02:21;32.72;;;14.95;;
29352;SDS011;16344;50.364;8.944;2023-04-09T00:04:47;30.73;;;15.93;;
29352;SDS011;16344;50.364;8.944;2023-04-09T00:07:12;34.97;;;16.77;;
29352;SDS011;16344;50.364;8.944;2023-04-09T00:09:38;29.80;;;15.07;;
29352;SDS011;16344;50.364;8.944;2023-04-09T00:12:03;29.73;;;14.93;;
29352;SDS011;16344;50.364;8.944;2023-04-09T00:14:29;36.33;;;17.20;;
29352;SDS011;16344;50.364;8.944;2023-04-09T00:16:54;33.47;;;16.05;;
29352;SDS011;16344;50.364;8.944;2023-04-09T00:19:20;27.80;;;15.18;;
29352;SDS011;16344;50.364;8.944;2023-04-09T00:21:46;40.20;;;17.27;;
29352;SDS011;16344;50.364;8.944;2023-04-09T00:24:12;29.60;;;15.65;;
29352;SDS011;16344;50.364;8.944;2023-04-09T00:26:38;32.08;;;16.58;;
29352;SDS011;16344;50.364;8.944;2023-04-09T00:29:04;31.33;;;15.38;;
29352;SDS011;16344;50.364;8.944;2023-04-09T00:31:30;33.72;;;15.98;;
29352;SDS011;16344;50.364;8.944;2023-04-09T00:33:55;31.45;;;16.38;;
29352;SDS011;16344;50.364;8.944;2023-04-09T00:36:21;31.60;;;16.58;;
29352;SDS011;16344;50.364;8.944;2023-04-09T00:38:46;32.63;;;16.88;;
29352;SDS011;16344;50.364;8.944;2023-04-09T00:41:13;32.83;;;16.60;;
29352;SDS011;16344;50.364;8.944;2023-04-09T00:43:39;28.27;;;14.48;;
29352;SDS011;16344;50.364;8.944;2023-04-09T00:46:04;30.85;;;16.52;;
29352;SDS011;16344;50.364;8.944;2023-04-09T00:48:30;32.00;;;16.83;;
29352;SDS011;16344;50.364;8.944;2023-04-09T00:50:56;33.53;;;16.20;;
29352;SDS011;16344;50.364;8.944;2023-04-09T00:53:21;32.15;;;16.38;;
29352;SDS011;16344;50.364;8.944;2023-04-09T00:55:47;32.33;;;17.00;;
29352;SDS011;16344;50.364;8.944;2023-04-09T00:58:13;32.03;;;16.67;;
29352;SDS011;16344;50.364;8.944;2023-04-09T01:00:38;30.38;;;16.70;;
29352;SDS011;16344;50.364;8.944;2023-04-09T01:03:04;34.45;;;16.70;;
29352;SDS011;16344;50.364;8.944;2023-04-09T01:05:39;33.03;;;17.90;;
29352;SDS011;16344;50.364;8.944;2023-04-09T01:08:18;32.50;;;17.05;;
29352;SDS011;16344;50.364;8.944;2023-04-09T01:11:11;33.78;;;15.30;;
29352;SDS011;16344;50.364;8.944;2023-04-09T01:16:49;37.33;;;18.48;;
29352;SDS011;16344;50.364;8.944;2023-04-09T01:22:09;38.47;;;18.83;;
29352;SDS011;16344;50.364;8.944;2023-04-09T01:24:59;38.15;;;18.98;;
29352;SDS011;16344;50.364;8.944;2023-04-09T01:27:38;39.65;;;19.23;;
29352;SDS011;16344;50.364;8.944;2023-04-09T01:30:13;36.00;;;19.42;;
29352;SDS011;16344;50.364;8.944;2023-04-09T01:32:40;41.63;;;18.80;;
29352;SDS011;16344;50.364;8.944;2023-04-09T01:35:06;39.20;;;17.27;;
29352;SDS011;16344;50.364;8.944;2023-04-09T01:37:33;36.47;;;18.50;;
29352;SDS011;16344;50.364;8.944;2023-04-09T01:40:00;41.15;;;19.20;;
29352;SDS011;16344;50.364;8.944;2023-04-09T01:42:26;39.58;;;19.42;;
29352;SDS011;16344;50.364;8.944;2023-04-09T01:44:53;35.85;;;18.02;;
29352;SDS011;16344;50.364;8.944;2023-04-09T01:47:19;34.42;;;17.27;;
29352;SDS011;16344;50.364;8.944;2023-04-09T01:49:45;37.17;;;17.70;;
29352;SDS011;16344;50.364;8.944;2023-04-09T01:52:11;34.78;;;17.13;;
29352;SDS011;16344;50.364;8.944;2023-04-09T01:54:36;34.60;;;17.98;;
29352;SDS011;16344;50.364;8.944;2023-04-09T01:57:02;37.08;;;18.40;;
29352;SDS011;16344;50.364;8.944;2023-04-09T01:59:27;40.85;;;20.00;;
29352;SDS011;16344;50.364;8.944;2023-04-09T02:02:00;44.15;;;22.35;;
29352;SDS011;16344;50.364;8.944;2023-04-09T02:04:33;42.33;;;21.15;;
29352;SDS011;16344;50.364;8.944;2023-04-09T02:07:05;42.60;;;21.20;;
29352;SDS011;16344;50.364;8.944;2023-04-09T02:09:50;36.33;;;20.33;;
29352;SDS011;16344;50.364;8.944;2023-04-09T02:12:18;39.20;;;20.10;;
29352;SDS011;16344;50.364;8.944;2023-04-09T02:14:45;38.47;;;19.45;;
29352;SDS011;16344;50.364;8.944;2023-04-09T02:17:15;36.83;;;18.45;;
29352;SDS011;16344;50.364;8.944;2023-04-09T02:19:41;36.63;;;18.88;;
29352;SDS011;16344;50.364;8.944;2023-04-09T02:22:08;46.28;;;20.73;;
29352;SDS011;16344;50.364;8.944;2023-04-09T02:24:35;40.55;;;20.40;;
29352;SDS011;16344;50.364;8.944;2023-04-09T02:27:01;41.50;;;20.55;;
29352;SDS011;16344;50.364;8.944;2023-04-09T02:29:27;37.30;;;18.92;;
29352;SDS011;16344;50.364;8.944;2023-04-09T02:31:54;31.30;;;15.95;;
29352;SDS011;16344;50.364;8.944;2023-04-09T02:34:19;38.63;;;16.58;;
29352;SDS011;16344;50.364;8.944;2023-04-09T02:36:45;40.08;;;19.13;;
29352;SDS011;16344;50.364;8.944;2023-04-09T02:39:10;36.00;;;18.35;;
29352;SDS011;16344;50.364;8.944;2023-04-09T02:41:36;41.17;;;20.27;;
29352;SDS011;16344;50.364;8.944;2023-04-09T02:44:01;44.30;;;18.73;;
29352;SDS011;16344;50.364;8.944;2023-04-09T02:46:27;38.38;;;19.48;;
29352;SDS011;16344;50.364;8.944;2023-04-09T02:48:53;30.15;;;15.88;;
29352;SDS011;16344;50.364;8.944;2023-04-09T02:51:18;35.00;;;18.23;;
29352;SDS011;16344;50.364;8.944;2023-04-09T02:53:44;36.72;;;18.92;;
29352;SDS011;16344;50.364;8.944;2023-04-09T02:56:10;38.15;;;18.38;;
29352;SDS011;16344;50.364;8.944;2023-04-09T02:58:35;43.70;;;18.92;;
29352;SDS011;16344;50.364;8.944;2023-04-09T03:01:01;38.25;;;19.13;;
29352;SDS011;16344;50.364;8.944;2023-04-09T03:03:26;37.70;;;18.65;;
29352;SDS011;16344;50.364;8.944;2023-04-09T03:05:52;35.75;;;17.55;;
29352;SDS011;16344;50.364;8.944;2023-04-09T03:08:18;43.65;;;19.52;;
29352;SDS011;16344;50.364;8.944;2023-04-09T03:10:43;37.45;;;19.10;;
29352;SDS011;16344;50.364;8.944;2023-04-09T03:13:09;35.90;;;17.13;;
29352;SDS011;16344;50.364;8.944;2023-04-09T03:15:34;38.40;;;18.42;;
29352;SDS011;16344;50.364;8.944;2023-04-09T03:18:00;36.58;;;18.95;;
29352;SDS011;16344;50.364;8.944;2023-04-09T03:20:25;37.28;;;19.08;;
29352;SDS011;16344;50.364;8.944;2023-04-09T03:22:51;41.00;;;19.48;;
29352;SDS011;16344;50.364;8.944;2023-04-09T03:25:16;40.85;;;20.45;;
29352;SDS011;16344;50.364;8.944;2023-04-09T03:27:44;44.35;;;21.20;;
29352;SDS011;16344;50.364;8.944;2023-04-09T03:30:10;39.78;;;20.02;;
29352;SDS011;16344;50.364;8.944;2023-04-09T03:32:36;42.90;;;19.83;;
29352;SDS011;16344;50.364;8.944;2023-04-09T03:35:01;39.55;;;20.13;;
29352;SDS011;16344;50.364;8.944;2023-04-09T03:37:27;41.55;;;20.23;;
29352;SDS011;16344;50.364;8.944;2023-04-09T03:39:52;41.97;;;20.48;;
29352;SDS011;16344;50.364;8.944;2023-04-09T03:42:18;41.10;;;20.30;;
29352;SDS011;16344;50.364;8.944;2023-04-09T03:44:43;40.80;;;19.05;;
29352;SDS011;16344;50.364;8.944;2023-04-09T03:47:09;38.65;;;20.42;;
29352;SDS011;16344;50.364;8.944;2023-04-09T03:49:34;43.97;;;21.58;;
29352;SDS011;16344;50.364;8.944;2023-04-09T03:52:00;41.92;;;19.02;;
29352;SDS011;16344;50.364;8.944;2023-04-09T03:54:29;40.22;;;21.00;;
29352;SDS011;16344;50.364;8.944;2023-04-09T03:56:54;36.70;;;18.45;;
29352;SDS011;16344;50.364;8.944;2023-04-09T03:59:21;45.50;;;17.92;;
29352;SDS011;16344;50.364;8.944;2023-04-09T04:01:47;44.45;;;18.70;;
29352;SDS011;16344;50.364;8.944;2023-04-09T04:04:13;30.92;;;16.05;;
29352;SDS011;16344;50.364;8.944;2023-04-09T04:06:38;34.83;;;16.50;;
29352;SDS011;16344;50.364;8.944;2023-04-09T04:09:04;42.35;;;17.58;;
29352;SDS011;16344;50.364;8.944;2023-04-09T04:11:30;33.40;;;16.95;;
29352;SDS011;16344;50.364;8.944;2023-04-09T04:13:55;36.83;;;18.88;;
29352;SDS011;16344;50.364;8.944;2023-04-09T04:16:21;36.13;;;17.77;;
29352;SDS011;16344;50.364;8.944;2023-04-09T04:18:46;33.97;;;15.77;;
29352;SDS011;16344;50.364;8.944;2023-04-09T04:21:15;39.55;;;18.10;;
29352;SDS011;16344;50.364;8.944;2023-04-09T04:23:41;36.53;;;16.95;;
29352;SDS011;16344;50.364;8.944;2023-04-09T04:26:07;35.13;;;17.98;;
29352;SDS011;16344;50.364;8.944;2023-04-09T04:28:36;40.78;;;17.63;;
29352;SDS011;16344;50.364;8.944;2023-04-09T04:31:06;38.72;;;17.73;;
29352;SDS011;16344;50.364;8.944;2023-04-09T04:33:35;33.72;;;17.48;;
29352;SDS011;16344;50.364;8.944;2023-04-09T04:36:05;33.80;;;16.88;;
29352;SDS011;16344;50.364;8.944;2023-04-09T04:38:33;42.38;;;19.70;;
29352;SDS011;16344;50.364;8.944;2023-04-09T04:40:59;34.60;;;17.00;;
29352;SDS011;16344;50.364;8.944;2023-04-09T04:43:25;33.63;;;18.17;;
29352;SDS011;16344;50.364;8.944;2023-04-09T04:45:51;36.38;;;17.45;;
29352;SDS011;16344;50.364;8.944;2023-04-09T04:48:16;35.92;;;18.45;;
29352;SDS011;16344;50.364;8.944;2023-04-09T04:50:42;37.97;;;18.33;;
29352;SDS011;16344;50.364;8.944;2023-04-09T04:53:07;33.70;;;18.02;;
29352;SDS011;16344;50.364;8.944;2023-04-09T04:55:36;36.08;;;19.40;;
29352;SDS011;16344;50.364;8.944;2023-04-09T04:58:05;41.42;;;19.27;;
29352;SDS011;16344;50.364;8.944;2023-04-09T05:00:31;37.72;;;19.63;;
29352;SDS011;16344;50.364;8.944;2023-04-09T05:02:56;43.83;;;20.48;;
29352;SDS011;16344;50.364;8.944;2023-04-09T05:05:22;43.42;;;19.20;;
29352;SDS011;16344;50.364;8.944;2023-04-09T05:07:47;43.80;;;19.77;;
29352;SDS011;16344;50.364;8.944;2023-04-09T05:10:13;43.67;;;20.17;;
29352;SDS011;16344;50.364;8.944;2023-04-09T05:12:38;42.50;;;19.27;;
29352;SDS011;16344;50.364;8.944;2023-04-09T05:15:04;36.83;;;18.77;;
29352;SDS011;16344;50.364;8.944;2023-04-09T05:17:30;38.90;;;18.80;;
29352;SDS011;16344;50.364;8.944;2023-04-09T05:19:56;40.63;;;19.30;;
29352;SDS011;16344;50.364;8.944;2023-04-09T05:22:21;36.15;;;18.15;;
29352;SDS011;16344;50.364;8.944;2023-04-09T05:24:47;42.40;;;19.80;;
29352;SDS011;16344;50.364;8.944;2023-04-09T05:27:13;39.03;;;18.70;;
29352;SDS011;16344;50.364;8.944;2023-04-09T05:29:38;43.28;;;20.83;;
29352;SDS011;16344;50.364;8.944;2023-04-09T05:32:04;34.75;;;18.23;;
29352;SDS011;16344;50.364;8.944;2023-04-09T05:34:30;41.95;;;19.98;;
29352;SDS011;16344;50.364;8.944;2023-04-09T05:36:56;41.10;;;20.10;;
29352;SDS011;16344;50.364;8.944;2023-04-09T05:39:22;39.13;;;19.58;;
29352;SDS011;16344;50.364;8.944;2023-04-09T05:41:47;40.83;;;19.25;;
29352;SDS011;16344;50.364;8.944;2023-04-09T05:44:13;38.72;;;18.92;;
29352;SDS011;16344;50.364;8.944;2023-04-09T05:46:38;44.53;;;21.20;;
29352;SDS011;16344;50.364;8.944;2023-04-09T05:49:04;40.55;;;19.98;;
29352;SDS011;16344;50.364;8.944;2023-04-09T05:51:30;41.45;;;20.83;;
29352;SDS011;16344;50.364;8.944;2023-04-09T05:53:55;40.15;;;20.17;;
29352;SDS011;16344;50.364;8.944;2023-04-09T05:56:21;40.67;;;20.25;;
29352;SDS011;16344;50.364;8.944;2023-04-09T05:58:47;38.47;;;19.55;;
29352;SDS011;16344;50.364;8.944;2023-04-09T06:01:13;37.10;;;18.30;;
29352;SDS011;16344;50.364;8.944;2023-04-09T06:03:39;41.00;;;19.20;;
29352;SDS011;16344;50.364;8.944;2023-04-09T06:06:04;48.17;;;22.05;;
29352;SDS011;16344;50.364;8.944;2023-04-09T06:08:30;41.05;;;19.88;;
29352;SDS011;16344;50.364;8.944;2023-04-09T06:10:56;37.70;;;18.83;;
29352;SDS011;16344;50.364;8.944;2023-04-09T06:13:22;41.83;;;21.13;;
29352;SDS011;16344;50.364;8.944;2023-04-09T06:15:48;39.15;;;19.27;;
29352;SDS011;16344;50.364;8.944;2023-04-09T06:18:14;32.75;;;16.67;;
29352;SDS011;16344;50.364;8.944;2023-04-09T06:20:40;34.80;;;17.85;;
29352;SDS011;16344;50.364;8.944;2023-04-09T06:23:05;38.75;;;19.02;;
29352;SDS011;16344;50.364;8.944;2023-04-09T06:25:31;38.10;;;18.17;;
29352;SDS011;16344;50.364;8.944;2023-04-09T06:27:57;35.30;;;16.77;;
29352;SDS011;16344;50.364;8.944;2023-04-09T06:30:22;38.50;;;19.20;;
29352;SDS011;16344;50.364;8.944;2023-04-09T06:32:48;48.90;;;22.58;;
29352;SDS011;16344;50.364;8.944;2023-04-09T06:35:14;40.88;;;22.63;;
29352;SDS011;16344;50.364;8.944;2023-04-09T06:37:40;36.65;;;20.75;;
29352;SDS011;16344;50.364;8.944;2023-04-09T06:40:05;41.13;;;20.50;;
29352;SDS011;16344;50.364;8.944;2023-04-09T06:42:32;46.47;;;20.60;;
29352;SDS011;16344;50.364;8.944;2023-04-09T06:44:57;44.35;;;21.00;;
29352;SDS011;16344;50.364;8.944;2023-04-09T06:47:23;49.72;;;22.98;;
29352;SDS011;16344;50.364;8.944;2023-04-09T06:49:48;46.42;;;23.30;;
29352;SDS011;16344;50.364;8.944;2023-04-09T06:52:14;54.17;;;21.92;;
29352;SDS011;16344;50.364;8.944;2023-04-09T06:54:40;43.80;;;21.00;;
29352;SDS011;16344;50.364;8.944;2023-04-09T06:57:06;44.10;;;20.38;;
29352;SDS011;16344;50.364;8.944;2023-04-09T06:59:32;37.70;;;19.75;;
29352;SDS011;16344;50.364;8.944;2023-04-09T07:01:58;36.20;;;19.95;;
29352;SDS011;16344;50.364;8.944;2023-04-09T07:04:24;41.05;;;20.30;;
29352;SDS011;16344;50.364;8.944;2023-04-09T07:06:50;42.72;;;19.60;;
29352;SDS011;16344;50.364;8.944;2023-04-09T07:09:18;39.72;;;19.92;;
29352;SDS011;16344;50.364;8.944;2023-04-09T07:11:44;37.17;;;18.98;;
29352;SDS011;16344;50.364;8.944;2023-04-09T07:14:10;38.53;;;19.17;;
29352;SDS011;16344;50.364;8.944;2023-04-09T07:16:35;41.42;;;20.27;;
29352;SDS011;16344;50.364;8.944;2023-04-09T07:19:01;39.60;;;20.30;;
29352;SDS011;16344;50.364;8.944;2023-04-09T07:21:27;38.53;;;18.80;;
29352;SDS011;16344;50.364;8.944;2023-04-09T07:23:53;35.33;;;17.85;;
29352;SDS011;16344;50.364;8.944;2023-04-09T07:26:18;35.97;;;17.67;;
29352;SDS011;16344;50.364;8.944;2023-04-09T07:28:44;29.52;;;16.20;;
29352;SDS011;16344;50.364;8.944;2023-04-09T07:31:10;34.78;;;17.13;;
29352;SDS011;16344;50.364;8.944;2023-04-09T07:33:35;34.72;;;17.65;;
29352;SDS011;16344;50.364;8.944;2023-04-09T07:36:01;38.25;;;16.02;;
29352;SDS011;16344;50.364;8.944;2023-04-09T07:38:30;31.63;;;17.08;;
29352;SDS011;16344;50.364;8.944;2023-04-09T07:40:55;33.10;;;17.13;;
29352;SDS011;16344;50.364;8.944;2023-04-09T07:43:21;32.05;;;16.52;;
29352;SDS011;16344;50.364;8.944;2023-04-09T07:45:49;31.95;;;17.52;;
29352;SDS011;16344;50.364;8.944;2023-04-09T07:48:15;36.33;;;17.42;;
29352;SDS011;16344;50.364;8.944;2023-04-09T07:50:41;32.22;;;16.77;;
29352;SDS011;16344;50.364;8.944;2023-04-09T07:53:09;30.77;;;16.13;;
29352;SDS011;16344;50.364;8.944;2023-04-09T07:55:35;30.42;;;17.58;;
29352;SDS011;16344;50.364;8.944;2023-04-09T07:58:01;36.15;;;17.25;;
29352;SDS011;16344;50.364;8.944;2023-04-09T08:00:28;36.63;;;17.27;;
29352;SDS011;16344;50.364;8.944;2023-04-09T08:02:53;35.42;;;17.48;;
29352;SDS011;16344;50.364;8.944;2023-04-09T08:05:19;32.70;;;16.67;;
29352;SDS011;16344;50.364;8.944;2023-04-09T08:07:45;33.80;;;17.65;;
29352;SDS011;16344;50.364;8.944;2023-04-09T08:10:10;41.10;;;19.67;;
29352;SDS011;16344;50.364;8.944;2023-04-09T08:12:39;35.65;;;19.05;;
29352;SDS011;16344;50.364;8.944;2023-04-09T08:15:05;36.28;;;19.65;;
29352;SDS011;16344;50.364;8.944;2023-04-09T08:17:31;35.47;;;18.25;;
29352;SDS011;16344;50.364;8.944;2023-04-09T08:19:56;34.83;;;18.13;;
29352;SDS011;16344;50.364;8.944;2023-04-09T08:22:22;38.63;;;19.85;;
29352;SDS011;16344;50.364;8.944;2023-04-09T08:24:51;37.22;;;18.05;;
29352;SDS011;16344;50.364;8.944;2023-04-09T08:27:17;30.13;;;16.73;;
29352;SDS011;16344;50.364;8.944;2023-04-09T08:29:42;32.38;;;17.25;;
29352;SDS011;16344;50.364;8.944;2023-04-09T08:32:08;31.92;;;18.02;;
29352;SDS011;16344;50.364;8.944;2023-04-09T08:34:33;29.58;;;17.17;;
29352;SDS011;16344;50.364;8.944;2023-04-09T08:36:59;29.40;;;18.70;;
29352;SDS011;16344;50.364;8.944;2023-04-09T08:39:25;33.17;;;17.17;;
29352;SDS011;16344;50.364;8.944;2023-04-09T08:41:51;32.20;;;17.58;;
29352;SDS011;16344;50.364;8.944;2023-04-09T08:44:17;33.72;;;18.90;;
29352;SDS011;16344;50.364;8.944;2023-04-09T08:46:43;33.22;;;17.55;;
29352;SDS011;16344;50.364;8.944;2023-04-09T08:49:08;32.92;;;17.70;;
29352;SDS011;16344;50.364;8.944;2023-04-09T08:51:35;34.50;;;19.83;;
29352;SDS011;16344;50.364;8.944;2023-04-09T08:54:01;33.15;;;18.00;;
29352;SDS011;16344;50.364;8.944;2023-04-09T08:56:27;35.65;;;19.45;;
29352;SDS011;16344;50.364;8.944;2023-04-09T08:58:53;34.03;;;18.95;;
29352;SDS011;16344;50.364;8.944;2023-04-09T09:03:56;33.72;;;17.83;;
29352;SDS011;16344;50.364;8.944;2023-04-09T09:06:24;29.08;;;16.27;;
29352;SDS011;16344;50.364;8.944;2023-04-09T09:09:06;30.55;;;18.23;;
29352;SDS011;16344;50.364;8.944;2023-04-09T09:11:39;32.72;;;18.63;;
29352;SDS011;16344;50.364;8.944;2023-04-09T09:14:10;33.35;;;19.30;;
29352;SDS011;16344;50.364;8.944;2023-04-09T09:16:38;35.42;;;19.48;;
29352;SDS011;16344;50.364;8.944;2023-04-09T09:19:07;27.95;;;16.83;;
29352;SDS011;16344;50.364;8.944;2023-04-09T09:21:34;34.25;;;18.35;;
29352;SDS011;16344;50.364;8.944;2023-04-09T09:24:00;29.63;;;17.38;;
29352;SDS011;16344;50.364;8.944;2023-04-09T09:26:27;30.08;;;16.73;;
29352;SDS011;16344;50.364;8.944;2023-04-09T09:28:54;29.70;;;16.55;;
29352;SDS011;16344;50.364;8.944;2023-04-09T09:31:23;29.95;;;17.02;;
29352;SDS011;16344;50.364;8.944;2023-04-09T09:33:49;31.98;;;16.92;;
29352;SDS011;16344;50.364;8.944;2023-04-09T09:36:15;31.02;;;16.67;;
29352;SDS011;16344;50.364;8.944;2023-04-09T09:38:58;34.55;;;18.00;;
29352;SDS011;16344;50.364;8.944;2023-04-09T09:41:28;35.55;;;17.05;;
29352;SDS011;16344;50.364;8.944;2023-04-09T09:43:54;32.85;;;17.02;;
29352;SDS011;16344;50.364;8.944;2023-04-09T09:46:19;28.45;;;16.25;;
29352;SDS011;16344;50.364;8.944;2023-04-09T09:48:46;26.73;;;15.70;;
29352;SDS011;16344;50.364;8.944;2023-04-09T09:51:12;28.88;;;15.00;;
29352;SDS011;16344;50.364;8.944;2023-04-09T09:53:42;29.50;;;16.52;;
29352;SDS011;16344;50.364;8.944;2023-04-09T09:56:17;27.52;;;15.18;;
29352;SDS011;16344;50.364;8.944;2023-04-09T09:58:59;28.75;;;15.18;;
29352;SDS011;16344;50.364;8.944;2023-04-09T10:01:30;29.50;;;15.18;;
29352;SDS011;16344;50.364;8.944;2023-04-09T10:03:58;26.95;;;14.73;;
29352;SDS011;16344;50.364;8.944;2023-04-09T10:06:25;28.08;;;15.60;;
29352;SDS011;16344;50.364;8.944;2023-04-09T10:08:51;25.02;;;15.52;;
29352;SDS011;16344;50.364;8.944;2023-04-09T10:11:21;31.38;;;14.73;;
29352;SDS011;16344;50.364;8.944;2023-04-09T10:13:57;27.73;;;16.50;;
29352;SDS011;16344;50.364;8.944;2023-04-09T10:16:24;31.77;;;15.88;;
29352;SDS011;16344;50.364;8.944;2023-04-09T10:18:51;27.55;;;14.73;;
29352;SDS011;16344;50.364;8.944;2023-04-09T10:21:25;25.35;;;15.27;;
29352;SDS011;16344;50.364;8.944;2023-04-09T10:24:07;28.02;;;16.35;;
29352;SDS011;16344;50.364;8.944;2023-04-09T10:26:34;24.58;;;14.82;;
29352;SDS011;16344;50.364;8.944;2023-04-09T10:31:46;23.02;;;14.77;;
29352;SDS011;16344;50.364;8.944;2023-04-09T10:34:22;28.20;;;15.47;;
29352;SDS011;16344;50.364;8.944;2023-04-09T10:36:54;26.73;;;14.00;;
29352;SDS011;16344;50.364;8.944;2023-04-09T10:39:24;27.30;;;13.93;;
29352;SDS011;16344;50.364;8.944;2023-04-09T10:41:52;30.20;;;14.75;;
29352;SDS011;16344;50.364;8.944;2023-04-09T10:44:19;23.25;;;13.75;;
29352;SDS011;16344;50.364;8.944;2023-04-09T10:46:54;26.10;;;15.77;;
29352;SDS011;16344;50.364;8.944;2023-04-09T10:49:23;21.98;;;12.50;;
29352;SDS011;16344;50.364;8.944;2023-04-09T10:57:20;20.75;;;13.30;;
29352;SDS011;16344;50.364;8.944;2023-04-09T11:08:00;19.95;;;11.55;;
29352;SDS011;16344;50.364;8.944;2023-04-09T11:10:27;19.60;;;11.68;;
29352;SDS011;16344;50.364;8.944;2023-04-09T11:12:53;25.73;;;11.93;;
29352;SDS011;16344;50.364;8.944;2023-04-09T11:15:18;21.42;;;11.77;;
29352;SDS011;16344;50.364;8.944;2023-04-09T11:17:48;18.67;;;10.30;;
29352;SDS011;16344;50.364;8.944;2023-04-09T11:20:15;15.93;;;10.73;;
29352;SDS011;16344;50.364;8.944;2023-04-09T11:22:43;21.85;;;11.10;;
29352;SDS011;16344;50.364;8.944;2023-04-09T11:25:09;21.05;;;10.35;;
29352;SDS011;16344;50.364;8.944;2023-04-09T11:27:37;19.40;;;10.73;;
29352;SDS011;16344;50.364;8.944;2023-04-09T11:30:03;19.20;;;10.40;;
29352;SDS011;16344;50.364;8.944;2023-04-09T11:32:30;16.52;;;10.70;;
29352;SDS011;16344;50.364;8.944;2023-04-09T11:34:57;15.70;;;9.13;;
29352;SDS011;16344;50.364;8.944;2023-04-09T11:37:23;20.92;;;10.70;;
29352;SDS011;16344;50.364;8.944;2023-04-09T11:39:49;16.95;;;10.23;;
29352;SDS011;16344;50.364;8.944;2023-04-09T11:42:18;20.00;;;10.82;;
29352;SDS011;16344;50.364;8.944;2023-04-09T11:44:44;17.92;;;10.00;;
29352;SDS011;16344;50.364;8.944;2023-04-09T11:47:10;16.55;;;10.48;;
29352;SDS011;16344;50.364;8.944;2023-04-09T11:49:37;18.58;;;8.75;;
29352;SDS011;16344;50.364;8.944;2023-04-09T11:52:03;16.95;;;9.00;;
29352;SDS011;16344;50.364;8.944;2023-04-09T11:54:32;18.27;;;9.88;;
29352;SDS011;16344;50.364;8.944;2023-04-09T11:56:58;13.88;;;8.73;;
29352;SDS011;16344;50.364;8.944;2023-04-09T11:59:24;15.23;;;9.75;;
29352;SDS011;16344;50.364;8.944;2023-04-09T12:01:50;14.35;;;9.18;;
29352;SDS011;16344;50.364;8.944;2023-04-09T12:04:19;16.98;;;10.05;;
29352;SDS011;16344;50.364;8.944;2023-04-09T12:06:47;15.38;;;8.82;;
29352;SDS011;16344;50.364;8.944;2023-04-09T12:09:13;17.17;;;9.38;;
29352;SDS011;16344;50.364;8.944;2023-04-09T12:11:42;15.98;;;9.50;;
29352;SDS011;16344;50.364;8.944;2023-04-09T12:14:14;21.08;;;9.25;;
29352;SDS011;16344;50.364;8.944;2023-04-09T12:16:41;15.75;;;8.85;;
29352;SDS011;16344;50.364;8.944;2023-04-09T12:19:11;15.77;;;8.85;;
29352;SDS011;16344;50.364;8.944;2023-04-09T12:21:52;14.43;;;8.13;;
29352;SDS011;16344;50.364;8.944;2023-04-09T12:24:23;12.55;;;8.32;;
29352;SDS011;16344;50.364;8.944;2023-04-09T12:26:49;15.68;;;9.48;;
29352;SDS011;16344;50.364;8.944;2023-04-09T12:29:16;15.77;;;9.02;;
29352;SDS011;16344;50.364;8.944;2023-04-09T12:31:42;13.20;;;8.00;;
29352;SDS011;16344;50.364;8.944;2023-04-09T12:34:08;13.88;;;8.68;;
29352;SDS011;16344;50.364;8.944;2023-04-09T12:36:34;14.60;;;9.18;;
29352;SDS011;16344;50.364;8.944;2023-04-09T12:38:59;15.02;;;8.25;;
29352;SDS011;16344;50.364;8.944;2023-04-09T12:41:25;14.32;;;8.57;;
29352;SDS011;16344;50.364;8.944;2023-04-09T12:43:51;17.88;;;8.77;;
29352;SDS011;16344;50.364;8.944;2023-04-09T12:46:17;14.40;;;9.07;;
29352;SDS011;16344;50.364;8.944;2023-04-09T12:48:43;14.15;;;8.35;;
29352;SDS011;16344;50.364;8.944;2023-04-09T12:51:09;15.45;;;8.95;;
29352;SDS011;16344;50.364;8.944;2023-04-09T12:53:35;15.73;;;9.95;;
29352;SDS011;16344;50.364;8.944;2023-04-09T12:56:01;13.50;;;8.80;;
29352;SDS011;16344;50.364;8.944;2023-04-09T12:58:27;14.73;;;7.50;;
29352;SDS011;16344;50.364;8.944;2023-04-09T13:00:53;11.52;;;7.38;;
29352;SDS011;16344;50.364;8.944;2023-04-09T13:03:20;13.48;;;8.13;;
29352;SDS011;16344;50.364;8.944;2023-04-09T13:05:46;17.98;;;7.75;;
29352;SDS011;16344;50.364;8.944;2023-04-09T13:08:12;13.63;;;7.55;;
29352;SDS011;16344;50.364;8.944;2023-04-09T13:10:37;13.02;;;8.13;;
29352;SDS011;16344;50.364;8.944;2023-04-09T13:13:03;12.15;;;7.90;;
29352;SDS011;16344;50.364;8.944;2023-04-09T13:15:30;12.98;;;8.10;;
29352;SDS011;16344;50.364;8.944;2023-04-09T13:17:55;11.80;;;7.00;;
29352;SDS011;16344;50.364;8.944;2023-04-09T13:20:21;12.35;;;7.47;;
29352;SDS011;16344;50.364;8.944;2023-04-09T13:22:46;13.93;;;7.80;;
29352;SDS011;16344;50.364;8.944;2023-04-09T13:25:13;13.75;;;7.68;;
29352;SDS011;16344;50.364;8.944;2023-04-09T13:27:39;12.18;;;7.43;;
29352;SDS011;16344;50.364;8.944;2023-04-09T13:30:05;10.20;;;7.00;;
29352;SDS011;16344;50.364;8.944;2023-04-09T13:32:31;60.08;;;6.50;;
29352;SDS011;16344;50.364;8.944;2023-04-09T13:34:57;10.88;;;6.95;;
29352;SDS011;16344;50.364;8.944;2023-04-09T13:37:22;11.52;;;7.07;;
29352;SDS011;16344;50.364;8.944;2023-04-09T13:39:49;11.80;;;7.10;;
29352;SDS011;16344;50.364;8.944;2023-04-09T13:42:15;9.95;;;6.63;;
29352;SDS011;16344;50.364;8.944;2023-04-09T13:44:41;12.48;;;7.88;;
29352;SDS011;16344;50.364;8.944;2023-04-09T13:47:09;11.23;;;7.05;;
29352;SDS011;16344;50.364;8.944;2023-04-09T13:49:37;10.88;;;6.75;;
29352;SDS011;16344;50.364;8.944;2023-04-09T13:52:03;11.00;;;6.82;;
29352;SDS011;16344;50.364;8.944;2023-04-09T13:54:29;12.48;;;7.43;;
29352;SDS011;16344;50.364;8.944;2023-04-09T13:56:55;13.60;;;7.70;;
29352;SDS011;16344;50.364;8.944;2023-04-09T13:59:20;13.45;;;7.07;;
29352;SDS011;16344;50.364;8.944;2023-04-09T14:01:46;11.10;;;7.38;;
29352;SDS011;16344;50.364;8.944;2023-04-09T14:04:11;10.77;;;6.78;;
29352;SDS011;16344;50.364;8.944;2023-04-09T14:06:37;9.07;;;6.40;;
29352;SDS011;16344;50.364;8.944;2023-04-09T14:09:02;8.98;;;5.47;;
29352;SDS011;16344;50.364;8.944;2023-04-09T14:11:28;7.10;;;5.10;;
29352;SDS011;16344;50.364;8.944;2023-04-09T14:13:54;8.55;;;6.03;;
29352;SDS011;16344;50.364;8.944;2023-04-09T14:16:19;9.73;;;6.03;;
29352;SDS011;16344;50.364;8.944;2023-04-09T14:18:45;10.57;;;6.35;;
29352;SDS011;16344;50.364;8.944;2023-04-09T14:21:10;10.63;;;6.30;;
29352;SDS011;16344;50.364;8.944;2023-04-09T14:23:38;8.73;;;6.00;;
29352;SDS011;16344;50.364;8.944;2023-04-09T14:26:04;8.77;;;5.78;;
29352;SDS011;16344;50.364;8.944;2023-04-09T14:28:30;9.10;;;5.63;;
29352;SDS011;16344;50.364;8.944;2023-04-09T14:30:57;9.02;;;5.53;;
29352;SDS011;16344;50.364;8.944;2023-04-09T14:33:23;10.10;;;5.78;;
29352;SDS011;16344;50.364;8.944;2023-04-09T14:35:50;10.93;;;5.57;;
29352;SDS011;16344;50.364;8.944;2023-04-09T14:38:16;12.93;;;5.55;;
29352;SDS011;16344;50.364;8.944;2023-04-09T14:40:41;10.27;;;6.43;;
29352;SDS011;16344;50.364;8.944;2023-04-09T14:43:07;8.38;;;5.70;;
29352;SDS011;16344;50.364;8.944;2023-04-09T14:45:33;8.85;;;5.82;;
29352;SDS011;16344;50.364;8.944;2023-04-09T14:47:59;11.00;;;5.47;;
29352;SDS011;16344;50.364;8.944;2023-04-09T14:50:24;10.55;;;5.97;;